createdAt,value
2023-02-26T00:01:13.797Z,100421.75
2023-02-26T00:03:40.332Z,100421.06
2023-02-26T00:06:08.044Z,100427.97
2023-02-26T00:08:35.025Z,100429.56
2023-02-26T00:11:01.931Z,100423.25
2023-02-26T00:13:30.413Z,100437.97
2023-02-26T00:16:01.145Z,100434.72
2023-02-26T00:18:28.612Z,100439.06
2023-02-26T00:20:55.690Z,100439.84
2023-02-26T00:23:22.848Z,100455.66
2023-02-26T00:25:49.487Z,100448.81
2023-02-26T00:28:16.406Z,100452.47
2023-02-26T00:30:44.558Z,100447.84
2023-02-26T00:33:11.517Z,100444.31
2023-02-26T00:35:38.546Z,100451.47
2023-02-26T00:38:07.300Z,100451.72
2023-02-26T00:40:39.820Z,100455.09
2023-02-26T00:43:09.589Z,100451.00
2023-02-26T00:45:42.344Z,100459.50
2023-02-26T00:48:28.310Z,100458.81
2023-02-26T00:51:02.895Z,100454.91
2023-02-26T00:53:36.551Z,100466.59
2023-02-26T00:56:03.728Z,100464.25
2023-02-26T00:58:30.198Z,100460.34
2023-02-26T01:00:56.708Z,100458.28
2023-02-26T01:03:24.974Z,100449.53
2023-02-26T01:05:51.732Z,100462.69
2023-02-26T01:08:28.035Z,100463.34
2023-02-26T01:10:54.938Z,100467.69
2023-02-26T01:13:21.879Z,100463.69
2023-02-26T01:15:53.953Z,100469.66
2023-02-26T01:18:26.476Z,100478.78
2023-02-26T01:20:58.724Z,100475.22
2023-02-26T01:23:29.681Z,100478.66
2023-02-26T01:25:59.194Z,100489.13
2023-02-26T01:28:26.535Z,100479.50
2023-02-26T01:30:55.788Z,100480.81
2023-02-26T01:33:29.947Z,100477.53
2023-02-26T01:36:01.363Z,100485.59
2023-02-26T01:38:34.291Z,100481.19
2023-02-26T01:41:17.597Z,100481.88
2023-02-26T01:43:54.317Z,100482.13
2023-02-26T01:46:28.754Z,100487.53
2023-02-26T01:48:58.489Z,100483.13
2023-02-26T01:51:44.845Z,100477.50
2023-02-26T01:54:12.209Z,100482.16
2023-02-26T01:56:39.594Z,100489.31
2023-02-26T01:59:09.278Z,100473.41
2023-02-26T02:01:37.621Z,100485.22
2023-02-26T02:04:09.722Z,100488.63
2023-02-26T02:06:36.657Z,100496.88
2023-02-26T02:09:06.118Z,100500.53
2023-02-26T02:11:32.847Z,100495.84
2023-02-26T02:14:12.398Z,100506.31
2023-02-26T02:16:47.772Z,100506.88
2023-02-26T02:19:35.645Z,100508.66
2023-02-26T02:22:24.325Z,100510.78
2023-02-26T02:25:04.638Z,100512.72
2023-02-26T02:27:41.356Z,100510.66
2023-02-26T02:30:23.368Z,100506.06
2023-02-26T02:32:54.114Z,100502.41
2023-02-26T02:35:26.184Z,100505.75
2023-02-26T02:37:58.560Z,100513.47
2023-02-26T02:40:31.033Z,100502.16
2023-02-26T02:43:00.796Z,100515.41
2023-02-26T02:45:38.379Z,100525.81
2023-02-26T02:48:11.938Z,100518.25
2023-02-26T02:50:44.349Z,100526.28
2023-02-26T02:53:17.250Z,100526.28
2023-02-26T02:55:48.895Z,100532.84
2023-02-26T02:58:20.912Z,100529.03
2023-02-26T03:00:53.550Z,100538.47
2023-02-26T03:03:26.317Z,100532.06
2023-02-26T03:05:53.045Z,100539.50
2023-02-26T03:08:22.024Z,100542.69
2023-02-26T03:10:48.626Z,100544.13
2023-02-26T03:13:17.177Z,100550.50
2023-02-26T03:16:07.695Z,100546.41
2023-02-26T03:18:48.274Z,100544.34
2023-02-26T03:21:21.698Z,100543.31
2023-02-26T03:23:54.132Z,100546.16
2023-02-26T03:26:27.511Z,100544.94
2023-02-26T03:28:59.218Z,100550.28
2023-02-26T03:31:31.549Z,100555.81
2023-02-26T03:34:02.627Z,100563.44
2023-02-26T03:36:35.743Z,100551.72
2023-02-26T03:39:07.866Z,100559.38
2023-02-26T03:41:39.326Z,100563.47
2023-02-26T03:44:10.675Z,100564.28
2023-02-26T03:46:41.789Z,100563.84
2023-02-26T03:49:14.666Z,100558.22
2023-02-26T03:51:42.817Z,100567.25
2023-02-26T03:54:18.181Z,100568.13
2023-02-26T03:56:47.180Z,100562.09
2023-02-26T03:59:15.523Z,100570.91
2023-02-26T04:01:48.931Z,100568.97
2023-02-26T04:04:22.288Z,100565.50
2023-02-26T04:06:49.410Z,100570.75
2023-02-26T04:09:16.274Z,100582.00
2023-02-26T04:11:45.012Z,100579.16
2023-02-26T04:14:11.648Z,100579.31
2023-02-26T04:16:38.301Z,100586.97
2023-02-26T04:19:04.864Z,100577.69
2023-02-26T04:21:32.649Z,100589.13
2023-02-26T04:23:59.162Z,100577.75
2023-02-26T04:26:26.002Z,100592.38
2023-02-26T04:28:52.670Z,100579.69
2023-02-26T04:31:19.601Z,100583.31
2023-02-26T04:33:46.343Z,100584.06
2023-02-26T04:36:13.413Z,100592.25
2023-02-26T04:38:41.243Z,100593.97
2023-02-26T04:41:07.804Z,100592.81
2023-02-26T04:43:34.339Z,100598.22
2023-02-26T04:46:01.083Z,100596.25
2023-02-26T04:48:27.584Z,100607.06
2023-02-26T04:50:54.096Z,100608.66
2023-02-26T04:53:20.611Z,100610.16
2023-02-26T04:55:52.264Z,100612.19
2023-02-26T04:58:20.201Z,100607.91
2023-02-26T05:00:48.482Z,100614.03
2023-02-26T05:03:15.204Z,100626.06
2023-02-26T05:05:41.965Z,100615.81
2023-02-26T05:08:08.834Z,100621.13
2023-02-26T05:10:35.538Z,100621.13
2023-02-26T05:13:03.339Z,100621.25
2023-02-26T05:15:29.871Z,100622.31
2023-02-26T05:17:56.515Z,100632.81
2023-02-26T05:20:23.087Z,100621.09
2023-02-26T05:22:49.716Z,100624.44
2023-02-26T05:25:17.550Z,100633.81
2023-02-26T05:27:44.061Z,100636.72
2023-02-26T05:30:14.822Z,100639.31
2023-02-26T05:32:41.817Z,100640.31
2023-02-26T05:35:09.234Z,100641.00
2023-02-26T05:37:35.847Z,100647.63
2023-02-26T05:40:02.714Z,100654.34
2023-02-26T05:42:29.213Z,100645.78
2023-02-26T05:44:55.718Z,100650.09
2023-02-26T05:47:23.621Z,100651.34
2023-02-26T05:49:50.457Z,100658.88
2023-02-26T05:52:16.943Z,100667.25
2023-02-26T05:54:43.454Z,100661.88
2023-02-26T05:57:09.916Z,100676.06
2023-02-26T05:59:36.468Z,100672.97
2023-02-26T06:02:03.090Z,100680.44
2023-02-26T06:04:30.977Z,100681.41
2023-02-26T06:06:57.573Z,100680.94
2023-02-26T06:09:24.091Z,100688.09
2023-02-26T06:11:50.584Z,100687.72
2023-02-26T06:14:17.233Z,100686.88
2023-02-26T06:16:43.805Z,100699.28
2023-02-26T06:19:10.402Z,100701.44
2023-02-26T06:21:38.337Z,100703.47
2023-02-26T06:24:05.344Z,100699.91
2023-02-26T06:26:31.871Z,100709.38
2023-02-26T06:28:59.286Z,100711.19
2023-02-26T06:31:25.869Z,100715.72
2023-02-26T06:33:52.361Z,100711.28
2023-02-26T06:36:18.883Z,100715.66
2023-02-26T06:38:46.771Z,100716.41
2023-02-26T06:41:13.489Z,100718.34
2023-02-26T06:43:40.311Z,100719.34
2023-02-26T06:46:07.049Z,100721.03
2023-02-26T06:48:33.620Z,100715.28
2023-02-26T06:51:00.144Z,100726.50
2023-02-26T06:53:26.851Z,100733.47
2023-02-26T06:55:54.662Z,100726.50
2023-02-26T06:58:21.508Z,100734.28
2023-02-26T07:00:48.479Z,100733.56
2023-02-26T07:03:16.765Z,100739.38
2023-02-26T07:05:44.434Z,100742.78
2023-02-26T07:08:10.946Z,100741.53
2023-02-26T07:10:38.098Z,100753.25
2023-02-26T07:13:05.957Z,100750.44
2023-02-26T07:15:32.652Z,100750.31
2023-02-26T07:17:59.173Z,100753.72
2023-02-26T07:20:26.133Z,100774.59
2023-02-26T07:22:52.647Z,100771.94
2023-02-26T07:25:19.440Z,100770.47
2023-02-26T07:27:46.539Z,100772.25
2023-02-26T07:30:14.883Z,100783.63
2023-02-26T07:32:41.414Z,100780.28
2023-02-26T07:35:08.559Z,100784.78
2023-02-26T07:37:35.094Z,100784.03
2023-02-26T07:40:01.765Z,100801.59
2023-02-26T07:42:28.382Z,100800.00
2023-02-26T07:44:54.863Z,100803.81
2023-02-26T07:47:22.685Z,100817.59
2023-02-26T07:49:49.220Z,100808.41
2023-02-26T07:52:15.741Z,100809.78
2023-02-26T07:54:42.482Z,100817.09
2023-02-26T07:57:09.170Z,100820.97
2023-02-26T07:59:35.688Z,100827.00
2023-02-26T08:02:02.207Z,100827.00
2023-02-26T08:04:30.081Z,100831.50
2023-02-26T08:06:56.566Z,100826.94
2023-02-26T08:09:23.375Z,100822.84
2023-02-26T08:11:49.884Z,100831.16
2023-02-26T08:14:16.475Z,100834.69
2023-02-26T08:16:42.946Z,100828.94
2023-02-26T08:19:09.585Z,100825.00
2023-02-26T08:21:37.422Z,100828.22
2023-02-26T08:24:04.201Z,100834.19
2023-02-26T08:26:30.809Z,100823.56
2023-02-26T08:28:57.432Z,100832.09
2023-02-26T08:31:24.177Z,100827.72
2023-02-26T08:33:50.812Z,100828.47
2023-02-26T08:36:17.345Z,100815.50
2023-02-26T08:38:45.175Z,100821.34
2023-02-26T08:41:11.946Z,100820.16
2023-02-26T08:43:38.457Z,100811.25
2023-02-26T08:46:05.685Z,100816.25
2023-02-26T08:48:32.204Z,100832.25
2023-02-26T08:50:58.953Z,100837.97
2023-02-26T08:53:25.440Z,100842.72
2023-02-26T08:55:53.636Z,100850.91
2023-02-26T08:58:20.725Z,100850.91
2023-02-26T09:00:47.948Z,100853.59
2023-02-26T09:03:14.617Z,100852.59
2023-02-26T09:05:41.182Z,100858.72
2023-02-26T09:08:08.541Z,100870.31
2023-02-26T09:10:35.260Z,100864.09
2023-02-26T09:13:03.097Z,100865.03
2023-02-26T09:15:29.694Z,100878.81
2023-02-26T09:17:56.334Z,100879.88
2023-02-26T09:20:22.930Z,100877.06
2023-02-26T09:22:49.574Z,100884.41
2023-02-26T09:25:16.198Z,100886.13
2023-02-26T09:27:42.780Z,100887.72
2023-02-26T09:30:11.727Z,100894.06
2023-02-26T09:32:38.449Z,100902.81
2023-02-26T09:35:05.913Z,100908.19
2023-02-26T09:37:32.936Z,100903.56
2023-02-26T09:39:59.519Z,100897.13
2023-02-26T09:42:36.602Z,100900.66
2023-02-26T09:45:03.859Z,100896.13
2023-02-26T09:47:38.767Z,100891.22
2023-02-26T09:50:13.282Z,100899.44
2023-02-26T09:52:44.592Z,100901.56
2023-02-26T09:55:14.052Z,100900.34
2023-02-26T09:57:44.440Z,100906.69
2023-02-26T10:00:30.606Z,100899.41
2023-02-26T10:03:15.239Z,100897.69
2023-02-26T10:05:51.482Z,100898.66
2023-02-26T10:08:19.291Z,100893.28
2023-02-26T10:10:50.376Z,100905.25
2023-02-26T10:13:25.581Z,100905.47
2023-02-26T10:15:56.464Z,100905.63
2023-02-26T10:18:30.329Z,100901.59
2023-02-26T10:21:03.735Z,100905.59
2023-02-26T10:23:38.520Z,100906.94
2023-02-26T10:26:11.588Z,100909.16
2023-02-26T10:28:54.680Z,100908.81
2023-02-26T10:31:29.780Z,100910.47
2023-02-26T10:34:11.176Z,100920.03
2023-02-26T10:36:44.540Z,100919.03
2023-02-26T10:39:23.489Z,100919.50
2023-02-26T10:41:52.253Z,100913.91
2023-02-26T10:44:27.270Z,100917.34
2023-02-26T10:47:03.554Z,100912.66
2023-02-26T10:49:49.539Z,100918.69
2023-02-26T10:52:18.499Z,100918.31
2023-02-26T10:54:54.419Z,100928.56
2023-02-26T10:57:25.015Z,100924.06
2023-02-26T10:59:51.581Z,100932.09
2023-02-26T11:02:36.350Z,100932.84
2023-02-26T11:05:08.071Z,100942.00
2023-02-26T11:07:37.715Z,100943.34
2023-02-26T11:10:11.811Z,100942.28
2023-02-26T11:12:38.324Z,100938.63
2023-02-26T11:15:05.916Z,100943.34
2023-02-26T11:17:33.598Z,100953.22
2023-02-26T11:20:05.079Z,100940.13
2023-02-26T11:22:33.813Z,100943.13
2023-02-26T11:25:00.540Z,100950.63
2023-02-26T11:27:32.158Z,100953.94
2023-02-26T11:30:03.645Z,100956.16
2023-02-26T11:32:33.348Z,100960.94
2023-02-26T11:34:59.925Z,100971.34
2023-02-26T11:37:31.264Z,100979.28
2023-02-26T11:39:59.683Z,100967.47
2023-02-26T11:42:27.266Z,100967.75
2023-02-26T11:44:54.380Z,100974.53
2023-02-26T11:47:24.512Z,100984.28
2023-02-26T11:49:53.178Z,100986.22
2023-02-26T11:52:23.165Z,100985.03
2023-02-26T11:54:57.116Z,100981.84
2023-02-26T11:57:24.563Z,100981.03
2023-02-26T11:59:53.809Z,100976.69
2023-02-26T12:02:22.821Z,100980.50
2023-02-26T12:04:52.943Z,100973.22
2023-02-26T12:07:21.001Z,100978.91
2023-02-26T12:09:48.310Z,100981.09
2023-02-26T12:12:31.760Z,100979.16
2023-02-26T12:15:08.945Z,100981.59
2023-02-26T12:17:51.356Z,100973.56
2023-02-26T12:20:23.665Z,100964.56
2023-02-26T12:22:56.482Z,100971.84
2023-02-26T12:25:40.947Z,100975.28
2023-02-26T12:28:30.257Z,100974.66
2023-02-26T12:31:12.487Z,100970.38
2023-02-26T12:33:51.029Z,100963.72
2023-02-26T12:36:31.634Z,100970.75
2023-02-26T12:39:16.347Z,100978.13
2023-02-26T12:42:04.568Z,100978.13
2023-02-26T12:44:53.321Z,100981.97
2023-02-26T12:47:31.066Z,100975.91
2023-02-26T12:50:08.744Z,100964.38
2023-02-26T12:52:50.776Z,100960.16
2023-02-26T12:55:29.288Z,100967.25
2023-02-26T12:58:20.841Z,100964.56
2023-02-26T13:01:03.859Z,100957.72
2023-02-26T13:03:45.533Z,100963.81
2023-02-26T13:06:32.863Z,100959.22
2023-02-26T13:09:07.639Z,100966.84
2023-02-26T13:11:47.191Z,100974.53
2023-02-26T13:14:26.994Z,100969.44
2023-02-26T13:17:03.228Z,100962.13
2023-02-26T13:19:39.288Z,100960.69
2023-02-26T13:22:15.744Z,100964.75
2023-02-26T13:24:46.354Z,100970.19
2023-02-26T13:27:15.929Z,100966.31
2023-02-26T13:29:47.781Z,100977.66
2023-02-26T13:32:20.438Z,100974.03
2023-02-26T13:34:53.062Z,100977.03
2023-02-26T13:37:25.288Z,100977.78
2023-02-26T13:40:04.493Z,100974.13
2023-02-26T13:42:37.881Z,100970.16
2023-02-26T13:45:22.146Z,100973.09
2023-02-26T13:47:58.254Z,100972.84
2023-02-26T13:50:33.820Z,100977.91
2023-02-26T13:53:03.740Z,100971.22
2023-02-26T13:55:42.206Z,100974.75
2023-02-26T13:58:18.657Z,100975.38
2023-02-26T14:00:48.381Z,100963.88
2023-02-26T14:06:22.411Z,100967.97
2023-02-26T14:08:51.194Z,100976.19
2023-02-26T14:11:42.377Z,100981.72
2023-02-26T14:14:22.612Z,100978.88
2023-02-26T14:16:53.467Z,100980.69
2023-02-26T14:19:26.233Z,100975.16
2023-02-26T14:21:55.372Z,100982.34
2023-02-26T14:24:25.186Z,100996.72
2023-02-26T14:27:07.943Z,100988.50
2023-02-26T14:29:40.605Z,100991.25
2023-02-26T14:32:22.517Z,100992.03
2023-02-26T14:34:52.123Z,100995.69
2023-02-26T14:37:24.127Z,100989.41
2023-02-26T14:39:55.762Z,100997.69
2023-02-26T14:42:26.608Z,100999.59
2023-02-26T14:45:03.280Z,101006.44
2023-02-26T14:47:29.985Z,101001.28
2023-02-26T14:49:56.550Z,101005.50
2023-02-26T14:52:43.657Z,101015.81
2023-02-26T14:55:26.323Z,101007.56
2023-02-26T14:58:04.973Z,101005.22
2023-02-26T15:00:41.867Z,101006.69
2023-02-26T15:03:24.098Z,101007.69
2023-02-26T15:06:07.610Z,101006.53
2023-02-26T15:08:47.849Z,101011.16
2023-02-26T15:11:32.660Z,101011.56
2023-02-26T15:14:16.321Z,101012.97
2023-02-26T15:16:54.845Z,101015.56
2023-02-26T15:19:33.800Z,101017.56
2023-02-26T15:22:15.700Z,101011.34
2023-02-26T15:24:43.950Z,101018.66
2023-02-26T15:27:16.034Z,101017.78
2023-02-26T15:29:43.298Z,101013.59
2023-02-26T15:32:21.351Z,101010.59
2023-02-26T15:34:54.211Z,101012.19
2023-02-26T15:37:23.563Z,101007.84
2023-02-26T15:39:52.281Z,101011.22
2023-02-26T15:42:21.364Z,101013.88
2023-02-26T15:44:56.874Z,101017.59
2023-02-26T15:47:24.122Z,101019.94
2023-02-26T15:49:50.789Z,101021.91
2023-02-26T15:52:21.601Z,101023.63
2023-02-26T15:54:53.462Z,101020.16
2023-02-26T15:57:22.215Z,101032.09
2023-02-26T15:59:50.668Z,101036.56
2023-02-26T16:02:21.304Z,101042.13
2023-02-26T16:04:48.473Z,101038.47
2023-02-26T16:07:15.090Z,101032.16
2023-02-26T16:09:45.209Z,101026.81
2023-02-26T16:12:17.126Z,101036.63
2023-02-26T16:14:47.443Z,101044.97
2023-02-26T16:17:21.073Z,101047.38
2023-02-26T16:19:50.294Z,101042.63
2023-02-26T16:22:21.305Z,101043.41
2023-02-26T16:24:53.621Z,101041.38
2023-02-26T16:27:25.480Z,101048.34
2023-02-26T16:29:54.934Z,101052.88
2023-02-26T16:32:23.416Z,101050.50
2023-02-26T16:34:52.977Z,101053.81
2023-02-26T16:37:25.454Z,101050.69
2023-02-26T16:39:55.696Z,101055.28
2023-02-26T16:42:35.992Z,101058.59
2023-02-26T16:45:17.267Z,101062.78
2023-02-26T16:47:45.708Z,101052.19
2023-02-26T16:50:17.690Z,101062.78
2023-02-26T16:52:48.060Z,101052.00
2023-02-26T16:55:14.696Z,101060.84
2023-02-26T16:57:42.572Z,101055.53
2023-02-26T17:00:15.810Z,101059.66
2023-02-26T17:02:42.761Z,101064.38
2023-02-26T17:05:21.488Z,101069.03
2023-02-26T17:07:53.391Z,101068.75
2023-02-26T17:10:23.640Z,101081.53
2023-02-26T17:12:53.405Z,101068.34
2023-02-26T17:15:27.636Z,101077.03
2023-02-26T17:17:54.153Z,101079.25
2023-02-26T17:20:20.639Z,101082.66
2023-02-26T17:22:47.179Z,101075.91
2023-02-26T17:25:15.788Z,101083.63
2023-02-26T17:27:43.261Z,101083.56
2023-02-26T17:30:15.401Z,101085.22
2023-02-26T17:32:42.443Z,101092.09
2023-02-26T17:35:11.553Z,101088.56
2023-02-26T17:37:38.140Z,101095.41
2023-02-26T17:40:17.708Z,101107.00
2023-02-26T17:42:44.246Z,101119.19
2023-02-26T17:45:12.141Z,101111.78
2023-02-26T17:47:38.716Z,101117.16
2023-02-26T17:50:19.506Z,101112.66
2023-02-26T17:52:46.052Z,101119.84
2023-02-26T17:55:12.560Z,101117.50
2023-02-26T17:57:39.165Z,101123.66
2023-02-26T18:00:06.672Z,101124.22
2023-02-26T18:02:34.531Z,101126.97
2023-02-26T18:05:01.098Z,101123.91
2023-02-26T18:07:27.661Z,101139.78
2023-02-26T18:09:54.227Z,101127.88
2023-02-26T18:12:22.467Z,101140.00
2023-02-26T18:14:49.715Z,101142.28
2023-02-26T18:17:20.695Z,101144.75
2023-02-26T18:19:48.587Z,101155.44
2023-02-26T18:22:16.701Z,101154.59
2023-02-26T18:24:43.257Z,101149.22
2023-02-26T18:27:13.925Z,101158.44
2023-02-26T18:29:40.575Z,101157.25
2023-02-26T18:32:09.142Z,101168.75
2023-02-26T18:34:35.826Z,101169.81
2023-02-26T18:37:03.670Z,101174.31
2023-02-26T18:39:30.204Z,101181.38
2023-02-26T18:41:56.820Z,101183.06
2023-02-26T18:44:23.440Z,101191.34
2023-02-26T18:46:49.981Z,101190.19
2023-02-26T18:49:19.491Z,101195.31
2023-02-26T18:51:46.070Z,101195.44
2023-02-26T18:54:13.897Z,101193.38
2023-02-26T18:56:40.383Z,101190.06
2023-02-26T18:59:06.955Z,101192.72
2023-02-26T19:01:33.561Z,101188.16
2023-02-26T19:04:00.093Z,101192.28
2023-02-26T19:06:26.679Z,101191.78
2023-02-26T19:08:53.196Z,101192.41
2023-02-26T19:11:21.044Z,101195.31
2023-02-26T19:13:49.030Z,101189.06
2023-02-26T19:16:15.553Z,101197.00
2023-02-26T19:18:42.054Z,101190.38
2023-02-26T19:21:08.596Z,101195.84
2023-02-26T19:23:35.214Z,101203.00
2023-02-26T19:26:01.749Z,101205.69
2023-02-26T19:28:29.550Z,101209.66
2023-02-26T19:30:56.244Z,101209.44
2023-02-26T19:33:22.922Z,101213.19
2023-02-26T19:35:49.493Z,101214.59
2023-02-26T19:38:16.334Z,101214.59
2023-02-26T19:40:43.244Z,101212.22
2023-02-26T19:43:09.938Z,101203.22
2023-02-26T19:45:37.771Z,101198.00
2023-02-26T19:48:04.299Z,101197.56
2023-02-26T19:50:30.777Z,101200.69
2023-02-26T19:52:57.370Z,101209.88
2023-02-26T19:55:23.975Z,101214.19
2023-02-26T19:57:50.473Z,101215.78
2023-02-26T20:00:17.083Z,101214.34
2023-02-26T20:02:45.013Z,101211.78
2023-02-26T20:05:11.717Z,101219.94
2023-02-26T20:07:38.217Z,101212.78
2023-02-26T20:10:05.359Z,101215.34
2023-02-26T20:12:31.859Z,101225.22
2023-02-26T20:14:58.368Z,101230.38
2023-02-26T20:17:24.925Z,101231.22
2023-02-26T20:19:52.746Z,101239.25
2023-02-26T20:22:19.613Z,101241.06
2023-02-26T20:24:46.091Z,101232.28
2023-02-26T20:27:12.690Z,101238.50
2023-02-26T20:29:39.233Z,101248.69
2023-02-26T20:32:06.086Z,101240.88
2023-02-26T20:34:32.629Z,101237.22
2023-02-26T20:37:00.548Z,101242.25
2023-02-26T20:39:27.080Z,101247.81
2023-02-26T20:41:53.590Z,101250.06
2023-02-26T20:44:20.227Z,101255.13
2023-02-26T20:46:46.819Z,101249.28
2023-02-26T20:49:13.420Z,101253.34
2023-02-26T20:51:41.111Z,101252.75
2023-02-26T20:54:10.032Z,101253.94
2023-02-26T20:56:36.538Z,101264.78
2023-02-26T20:59:03.203Z,101268.22
2023-02-26T21:01:29.779Z,101265.22
2023-02-26T21:03:56.328Z,101267.44
2023-02-26T21:06:22.872Z,101271.94
2023-02-26T21:08:49.475Z,101271.38
2023-02-26T21:11:17.306Z,101276.97
2023-02-26T21:13:43.846Z,101286.00
2023-02-26T21:16:10.378Z,101283.53
2023-02-26T21:18:36.980Z,101289.53
2023-02-26T21:21:03.861Z,101292.50
2023-02-26T21:23:30.532Z,101298.56
2023-02-26T21:25:57.057Z,101298.00
2023-02-26T21:28:24.872Z,101301.22
2023-02-26T21:30:51.653Z,101301.31
2023-02-26T21:33:18.375Z,101308.31
2023-02-26T21:35:48.547Z,101306.47
2023-02-26T21:38:15.064Z,101307.94
2023-02-26T21:40:41.702Z,101305.75
2023-02-26T21:43:08.220Z,101302.22
2023-02-26T21:45:36.341Z,101309.41
2023-02-26T21:48:02.922Z,101303.16
2023-02-26T21:50:29.479Z,101300.28
2023-02-26T21:52:56.274Z,101307.13
2023-02-26T21:55:23.097Z,101298.63
2023-02-26T21:57:49.671Z,101313.47
2023-02-26T22:00:17.127Z,101308.53
2023-02-26T22:02:45.089Z,101305.31
2023-02-26T22:05:12.076Z,101308.09
2023-02-26T22:07:39.264Z,101317.75
2023-02-26T22:10:07.553Z,101308.09
2023-02-26T22:12:34.315Z,101310.78
2023-02-26T22:15:00.864Z,101311.41
2023-02-26T22:17:27.406Z,101306.41
2023-02-26T22:19:55.214Z,101304.88
2023-02-26T22:22:21.728Z,101310.16
2023-02-26T22:24:48.256Z,101310.47
2023-02-26T22:27:14.830Z,101308.88
2023-02-26T22:29:41.551Z,101311.72
2023-02-26T22:32:08.118Z,101306.25
2023-02-26T22:34:35.251Z,101304.50
2023-02-26T22:37:03.170Z,101311.03
2023-02-26T22:39:29.726Z,101309.22
2023-02-26T22:41:56.246Z,101309.28
2023-02-26T22:44:22.861Z,101301.97
2023-02-26T22:46:49.434Z,101304.84
2023-02-26T22:49:15.906Z,101303.38
2023-02-26T22:51:42.367Z,101305.47
2023-02-26T22:54:10.215Z,101304.44
2023-02-26T22:56:36.780Z,101311.09
2023-02-26T22:59:03.281Z,101299.50
2023-02-26T23:01:29.969Z,101299.97
2023-02-26T23:03:56.642Z,101306.47
2023-02-26T23:06:23.150Z,101300.81
2023-02-26T23:08:49.640Z,101297.16
2023-02-26T23:11:17.527Z,101294.59
2023-02-26T23:13:44.073Z,101290.94
2023-02-26T23:16:11.590Z,101301.22
2023-02-26T23:18:38.656Z,101300.75
2023-02-26T23:21:07.984Z,101299.44
2023-02-26T23:23:34.512Z,101303.00
2023-02-26T23:26:01.059Z,101304.41
2023-02-26T23:28:29.089Z,101303.00
2023-02-26T23:30:55.742Z,101310.25
2023-02-26T23:33:22.657Z,101312.38
2023-02-26T23:35:49.479Z,101302.03
2023-02-26T23:38:16.369Z,101307.56
2023-02-26T23:40:42.869Z,101299.81
2023-02-26T23:43:09.350Z,101295.16
2023-02-26T23:45:37.194Z,101295.94
2023-02-26T23:48:04.046Z,101301.41
2023-02-26T23:50:30.552Z,101295.72
2023-02-26T23:52:57.127Z,101299.13
2023-02-26T23:55:23.613Z,101292.06
2023-02-26T23:57:50.155Z,101292.63
